sensor_id;sensor_type;location;lat;lon;timestamp;temperature;humidity
4596;DHT22;2310;49.978;8.742;2023-11-21T00:00:43;11.50;99.90
4596;DHT22;2310;49.978;8.742;2023-11-21T00:04:44;11.60;99.90
4596;DHT22;2310;49.978;8.742;2023-11-21T00:08:46;11.80;99.90
4596;DHT22;2310;49.978;8.742;2023-11-21T00:12:48;11.90;99.90
4596;DHT22;2310;49.978;8.742;2023-11-21T00:16:49;11.80;99.90
4596;DHT22;2310;49.978;8.742;2023-11-21T00:20:50;11.90;99.90
4596;DHT22;2310;49.978;8.742;2023-11-21T00:24:52;12.00;99.90
4596;DHT22;2310;49.978;8.742;2023-11-21T00:28:53;12.10;99.90
4596;DHT22;2310;49.978;8.742;2023-11-21T00:32:54;12.00;99.90
4596;DHT22;2310;49.978;8.742;2023-11-21T00:36:56;12.00;99.90
4596;DHT22;2310;49.978;8.742;2023-11-21T00:40:57;12.00;99.90
4596;DHT22;2310;49.978;8.742;2023-11-21T00:44:59;12.10;99.90
4596;DHT22;2310;49.978;8.742;2023-11-21T00:49:00;11.90;99.90
4596;DHT22;2310;49.978;8.742;2023-11-21T00:53:02;11.80;99.90
4596;DHT22;2310;49.978;8.742;2023-11-21T00:57:03;11.60;99.90
4596;DHT22;2310;49.978;8.742;2023-11-21T01:01:05;11.80;99.90
4596;DHT22;2310;49.978;8.742;2023-11-21T01:05:06;11.60;99.90
4596;DHT22;2310;49.978;8.742;2023-11-21T01:09:09;11.50;99.90
4596;DHT22;2310;49.978;8.742;2023-11-21T01:13:10;11.50;99.90
4596;DHT22;2310;49.978;8.742;2023-11-21T01:17:11;11.60;99.90
4596;DHT22;2310;49.978;8.742;2023-11-21T01:21:13;11.60;99.90
4596;DHT22;2310;49.978;8.742;2023-11-21T01:25:14;11.70;99.90
4596;DHT22;2310;49.978;8.742;2023-11-21T01:29:17;11.70;99.90
4596;DHT22;2310;49.978;8.742;2023-11-21T01:33:18;11.70;99.90
4596;DHT22;2310;49.978;8.742;2023-11-21T01:37:19;11.80;99.90
4596;DHT22;2310;49.978;8.742;2023-11-21T01:41:22;11.90;99.90
4596;DHT22;2310;49.978;8.742;2023-11-21T01:45:24;11.80;99.90
4596;DHT22;2310;49.978;8.742;2023-11-21T01:49:27;11.70;99.90
4596;DHT22;2310;49.978;8.742;2023-11-21T01:53:28;11.80;99.90
4596;DHT22;2310;49.978;8.742;2023-11-21T01:57:30;11.60;99.90
4596;DHT22;2310;49.978;8.742;2023-11-21T02:01:32;11.60;99.90
4596;DHT22;2310;49.978;8.742;2023-11-21T02:05:33;11.70;99.90
4596;DHT22;2310;49.978;8.742;2023-11-21T02:09:35;11.70;99.90
4596;DHT22;2310;49.978;8.742;2023-11-21T02:13:39;11.70;99.90
4596;DHT22;2310;49.978;8.742;2023-11-21T02:17:42;11.70;99.90
4596;DHT22;2310;49.978;8.742;2023-11-21T02:21:53;11.80;99.90
4596;DHT22;2310;49.978;8.742;2023-11-21T02:25:55;11.90;99.90
4596;DHT22;2310;49.978;8.742;2023-11-21T02:29:56;12.00;99.90
4596;DHT22;2310;49.978;8.742;2023-11-21T02:33:57;12.10;99.90
4596;DHT22;2310;49.978;8.742;2023-11-21T02:37:58;12.10;99.90
4596;DHT22;2310;49.978;8.742;2023-11-21T02:42:00;12.00;99.90
4596;DHT22;2310;49.978;8.742;2023-11-21T02:46:01;12.00;99.90
4596;DHT22;2310;49.978;8.742;2023-11-21T02:50:03;11.80;99.90
4596;DHT22;2310;49.978;8.742;2023-11-21T02:54:05;11.70;99.90
4596;DHT22;2310;49.978;8.742;2023-11-21T02:58:09;11.70;99.90
4596;DHT22;2310;49.978;8.742;2023-11-21T03:02:10;11.80;99.90
4596;DHT22;2310;49.978;8.742;2023-11-21T03:06:11;11.80;99.90
4596;DHT22;2310;49.978;8.742;2023-11-21T03:10:13;11.80;99.90
4596;DHT22;2310;49.978;8.742;2023-11-21T03:14:14;11.80;99.90
4596;DHT22;2310;49.978;8.742;2023-11-21T03:18:16;11.70;99.90
4596;DHT22;2310;49.978;8.742;2023-11-21T03:22:17;11.70;99.90
4596;DHT22;2310;49.978;8.742;2023-11-21T03:26:18;11.70;99.90
4596;DHT22;2310;49.978;8.742;2023-11-21T03:30:20;11.80;99.90
4596;DHT22;2310;49.978;8.742;2023-11-21T03:34:27;11.60;99.90
4596;DHT22;2310;49.978;8.742;2023-11-21T03:38:29;11.60;99.90
4596;DHT22;2310;49.978;8.742;2023-11-21T03:42:30;11.70;99.90
4596;DHT22;2310;49.978;8.742;2023-11-21T03:46:32;11.70;99.90
4596;DHT22;2310;49.978;8.742;2023-11-21T03:50:33;11.70;99.90
4596;DHT22;2310;49.978;8.742;2023-11-21T03:54:34;11.70;99.90
4596;DHT22;2310;49.978;8.742;2023-11-21T03:58:36;11.50;99.90
4596;DHT22;2310;49.978;8.742;2023-11-21T04:02:37;11.50;99.90
4596;DHT22;2310;49.978;8.742;2023-11-21T04:06:38;11.50;99.90
4596;DHT22;2310;49.978;8.742;2023-11-21T04:10:40;11.50;99.90
4596;DHT22;2310;49.978;8.742;2023-11-21T04:14:41;11.40;99.90
4596;DHT22;2310;49.978;8.742;2023-11-21T04:18:42;11.50;99.90
4596;DHT22;2310;49.978;8.742;2023-11-21T04:22:44;11.60;99.90
4596;DHT22;2310;49.978;8.742;2023-11-21T04:26:46;11.40;99.90
4596;DHT22;2310;49.978;8.742;2023-11-21T04:30:48;11.40;99.90
4596;DHT22;2310;49.978;8.742;2023-11-21T04:34:49;11.40;99.90
4596;DHT22;2310;49.978;8.742;2023-11-21T04:38:50;11.50;99.90
4596;DHT22;2310;49.978;8.742;2023-11-21T04:42:52;11.30;99.90
4596;DHT22;2310;49.978;8.742;2023-11-21T04:46:53;11.20;99.90
4596;DHT22;2310;49.978;8.742;2023-11-21T04:50:55;11.10;99.90
4596;DHT22;2310;49.978;8.742;2023-11-21T04:54:56;11.00;99.90
4596;DHT22;2310;49.978;8.742;2023-11-21T04:58:59;11.10;99.90
4596;DHT22;2310;49.978;8.742;2023-11-21T05:03:00;11.00;99.90
4596;DHT22;2310;49.978;8.742;2023-11-21T05:07:06;11.00;99.90
4596;DHT22;2310;49.978;8.742;2023-11-21T05:11:08;11.00;99.90
4596;DHT22;2310;49.978;8.742;2023-11-21T05:15:14;11.10;99.90
4596;DHT22;2310;49.978;8.742;2023-11-21T05:19:16;11.20;99.90
4596;DHT22;2310;49.978;8.742;2023-11-21T05:23:17;11.30;99.90
4596;DHT22;2310;49.978;8.742;2023-11-21T05:27:18;11.20;99.90
4596;DHT22;2310;49.978;8.742;2023-11-21T05:31:20;11.10;99.90
4596;DHT22;2310;49.978;8.742;2023-11-21T05:35:21;11.10;99.90
4596;DHT22;2310;49.978;8.742;2023-11-21T05:39:23;11.10;99.90
4596;DHT22;2310;49.978;8.742;2023-11-21T05:43:25;11.10;99.90
4596;DHT22;2310;49.978;8.742;2023-11-21T05:47:27;11.10;99.90
4596;DHT22;2310;49.978;8.742;2023-11-21T05:51:29;11.20;99.90
4596;DHT22;2310;49.978;8.742;2023-11-21T05:55:31;11.20;99.90
4596;DHT22;2310;49.978;8.742;2023-11-21T05:59:32;11.30;99.90
4596;DHT22;2310;49.978;8.742;2023-11-21T06:03:34;11.50;99.90
4596;DHT22;2310;49.978;8.742;2023-11-21T06:07:37;11.40;99.90
4596;DHT22;2310;49.978;8.742;2023-11-21T06:11:39;11.40;99.90
4596;DHT22;2310;49.978;8.742;2023-11-21T06:15:40;11.40;99.90
4596;DHT22;2310;49.978;8.742;2023-11-21T06:19:42;11.20;99.90
4596;DHT22;2310;49.978;8.742;2023-11-21T06:23:43;11.30;99.90
4596;DHT22;2310;49.978;8.742;2023-11-21T06:27:47;11.30;99.90
4596;DHT22;2310;49.978;8.742;2023-11-21T06:31:49;11.40;99.90
4596;DHT22;2310;49.978;8.742;2023-11-21T06:35:50;11.50;99.90
4596;DHT22;2310;49.978;8.742;2023-11-21T06:39:52;11.60;99.90
4596;DHT22;2310;49.978;8.742;2023-11-21T06:43:54;11.60;99.90
4596;DHT22;2310;49.978;8.742;2023-11-21T06:47:56;11.60;99.90
4596;DHT22;2310;49.978;8.742;2023-11-21T06:51:58;11.60;99.90
4596;DHT22;2310;49.978;8.742;2023-11-21T06:55:59;11.60;99.90
4596;DHT22;2310;49.978;8.742;2023-11-21T07:00:02;11.50;99.90
4596;DHT22;2310;49.978;8.742;2023-11-21T07:04:05;11.40;99.90
4596;DHT22;2310;49.978;8.742;2023-11-21T07:08:07;11.40;99.90
4596;DHT22;2310;49.978;8.742;2023-11-21T07:12:09;11.40;99.90
4596;DHT22;2310;49.978;8.742;2023-11-21T07:16:10;11.30;99.90
4596;DHT22;2310;49.978;8.742;2023-11-21T07:20:12;11.30;99.90
4596;DHT22;2310;49.978;8.742;2023-11-21T07:24:15;11.20;99.90
4596;DHT22;2310;49.978;8.742;2023-11-21T07:28:17;11.20;99.90
4596;DHT22;2310;49.978;8.742;2023-11-21T07:32:18;11.10;99.90
4596;DHT22;2310;49.978;8.742;2023-11-21T07:36:20;11.10;99.90
4596;DHT22;2310;49.978;8.742;2023-11-21T07:40:22;11.20;99.90
4596;DHT22;2310;49.978;8.742;2023-11-21T07:44:24;11.20;99.90
4596;DHT22;2310;49.978;8.742;2023-11-21T07:48:25;10.90;99.90
4596;DHT22;2310;49.978;8.742;2023-11-21T07:52:27;11.00;99.90
4596;DHT22;2310;49.978;8.742;2023-11-21T07:56:28;10.90;99.90
4596;DHT22;2310;49.978;8.742;2023-11-21T08:00:30;10.90;99.90
4596;DHT22;2310;49.978;8.742;2023-11-21T08:04:32;10.80;99.90
4596;DHT22;2310;49.978;8.742;2023-11-21T08:08:35;11.20;99.90
4596;DHT22;2310;49.978;8.742;2023-11-21T08:12:37;11.60;99.90
4596;DHT22;2310;49.978;8.742;2023-11-21T08:16:39;11.60;99.90
4596;DHT22;2310;49.978;8.742;2023-11-21T08:20:41;11.40;99.90
4596;DHT22;2310;49.978;8.742;2023-11-21T08:24:42;11.40;99.90
4596;DHT22;2310;49.978;8.742;2023-11-21T08:28:44;11.60;99.90
4596;DHT22;2310;49.978;8.742;2023-11-21T08:32:45;11.60;99.90
4596;DHT22;2310;49.978;8.742;2023-11-21T08:36:46;11.50;99.90
4596;DHT22;2310;49.978;8.742;2023-11-21T08:40:48;11.50;99.90
4596;DHT22;2310;49.978;8.742;2023-11-21T08:44:49;11.30;99.90
4596;DHT22;2310;49.978;8.742;2023-11-21T08:48:50;11.30;99.90
4596;DHT22;2310;49.978;8.742;2023-11-21T08:52:53;11.40;99.90
4596;DHT22;2310;49.978;8.742;2023-11-21T08:56:55;11.40;99.90
4596;DHT22;2310;49.978;8.742;2023-11-21T09:00:56;11.50;99.90
4596;DHT22;2310;49.978;8.742;2023-11-21T09:04:57;11.50;99.90
4596;DHT22;2310;49.978;8.742;2023-11-21T09:09:00;11.30;99.90
4596;DHT22;2310;49.978;8.742;2023-11-21T09:13:01;11.20;99.90
4596;DHT22;2310;49.978;8.742;2023-11-21T09:17:03;11.30;99.90
4596;DHT22;2310;49.978;8.742;2023-11-21T09:21:05;11.10;99.90
4596;DHT22;2310;49.978;8.742;2023-11-21T09:25:07;11.10;99.90
4596;DHT22;2310;49.978;8.742;2023-11-21T09:29:09;11.00;99.90
4596;DHT22;2310;49.978;8.742;2023-11-21T09:33:11;11.20;99.90
4596;DHT22;2310;49.978;8.742;2023-11-21T09:37:12;11.30;99.90
4596;DHT22;2310;49.978;8.742;2023-11-21T09:41:21;11.10;99.90
4596;DHT22;2310;49.978;8.742;2023-11-21T09:45:28;11.20;99.90
4596;DHT22;2310;49.978;8.742;2023-11-21T09:49:31;11.30;99.90
4596;DHT22;2310;49.978;8.742;2023-11-21T09:53:35;11.30;99.90
4596;DHT22;2310;49.978;8.742;2023-11-21T09:57:36;11.40;99.90
4596;DHT22;2310;49.978;8.742;2023-11-21T10:01:38;11.50;99.90
4596;DHT22;2310;49.978;8.742;2023-11-21T10:05:42;11.50;99.90
4596;DHT22;2310;49.978;8.742;2023-11-21T10:09:43;11.70;99.90
4596;DHT22;2310;49.978;8.742;2023-11-21T10:13:46;11.70;99.90
4596;DHT22;2310;49.978;8.742;2023-11-21T10:17:49;11.70;99.90
4596;DHT22;2310;49.978;8.742;2023-11-21T10:21:51;11.80;99.90
4596;DHT22;2310;49.978;8.742;2023-11-21T10:25:53;11.90;99.90
4596;DHT22;2310;49.978;8.742;2023-11-21T10:29:55;11.80;99.90
4596;DHT22;2310;49.978;8.742;2023-11-21T10:34:16;11.80;99.90
4596;DHT22;2310;49.978;8.742;2023-11-21T10:38:17;11.80;99.90
4596;DHT22;2310;49.978;8.742;2023-11-21T10:42:19;11.90;99.90
4596;DHT22;2310;49.978;8.742;2023-11-21T10:46:21;12.10;99.90
4596;DHT22;2310;49.978;8.742;2023-11-21T10:50:24;12.30;99.90
4596;DHT22;2310;49.978;8.742;2023-11-21T10:54:27;12.70;99.90
4596;DHT22;2310;49.978;8.742;2023-11-21T10:58:28;12.90;99.90
4596;DHT22;2310;49.978;8.742;2023-11-21T11:02:30;13.00;99.90
4596;DHT22;2310;49.978;8.742;2023-11-21T11:06:34;13.30;99.90
4596;DHT22;2310;49.978;8.742;2023-11-21T11:10:36;13.50;99.90
4596;DHT22;2310;49.978;8.742;2023-11-21T11:14:40;13.60;99.90
4596;DHT22;2310;49.978;8.742;2023-11-21T11:18:42;13.80;99.90
4596;DHT22;2310;49.978;8.742;2023-11-21T11:27:21;14.10;99.90
4596;DHT22;2310;49.978;8.742;2023-11-21T11:31:27;14.40;99.90
4596;DHT22;2310;49.978;8.742;2023-11-21T11:40:07;14.50;99.90
4596;DHT22;2310;49.978;8.742;2023-11-21T11:44:47;14.90;99.90
4596;DHT22;2310;49.978;8.742;2023-11-21T11:48:16;15.40;99.90
4596;DHT22;2310;49.978;8.742;2023-11-21T11:56:41;15.40;99.90
4596;DHT22;2310;49.978;8.742;2023-11-21T12:00:43;14.60;99.90
4596;DHT22;2310;49.978;8.742;2023-11-21T12:04:47;14.20;99.90
4596;DHT22;2310;49.978;8.742;2023-11-21T12:08:50;13.70;99.90
4596;DHT22;2310;49.978;8.742;2023-11-21T12:12:54;13.70;99.90
4596;DHT22;2310;49.978;8.742;2023-11-21T12:16:56;13.60;99.90
4596;DHT22;2310;49.978;8.742;2023-11-21T12:20:57;13.40;99.90
4596;DHT22;2310;49.978;8.742;2023-11-21T12:24:59;13.20;99.90
4596;DHT22;2310;49.978;8.742;2023-11-21T12:29:02;13.10;99.90
4596;DHT22;2310;49.978;8.742;2023-11-21T12:33:06;12.90;99.90
4596;DHT22;2310;49.978;8.742;2023-11-21T12:37:09;13.10;99.90
4596;DHT22;2310;49.978;8.742;2023-11-21T12:41:12;13.00;99.90
4596;DHT22;2310;49.978;8.742;2023-11-21T12:45:19;13.10;99.90
4596;DHT22;2310;49.978;8.742;2023-11-21T12:49:21;13.10;99.90
4596;DHT22;2310;49.978;8.742;2023-11-21T12:53:23;12.90;99.90
4596;DHT22;2310;49.978;8.742;2023-11-21T12:57:28;12.90;99.90
4596;DHT22;2310;49.978;8.742;2023-11-21T13:01:29;12.90;99.90
4596;DHT22;2310;49.978;8.742;2023-11-21T13:05:37;13.00;99.90
4596;DHT22;2310;49.978;8.742;2023-11-21T13:09:40;13.00;99.90
4596;DHT22;2310;49.978;8.742;2023-11-21T13:13:42;12.90;99.90
4596;DHT22;2310;49.978;8.742;2023-11-21T13:17:45;12.90;99.90
4596;DHT22;2310;49.978;8.742;2023-11-21T13:21:46;12.80;99.90
4596;DHT22;2310;49.978;8.742;2023-11-21T13:25:48;12.80;99.90
4596;DHT22;2310;49.978;8.742;2023-11-21T13:29:52;12.70;99.90
4596;DHT22;2310;49.978;8.742;2023-11-21T13:33:55;12.80;99.90
4596;DHT22;2310;49.978;8.742;2023-11-21T13:38:07;12.80;99.90
4596;DHT22;2310;49.978;8.742;2023-11-21T13:42:08;12.70;99.90
4596;DHT22;2310;49.978;8.742;2023-11-21T13:46:11;12.60;99.90
4596;DHT22;2310;49.978;8.742;2023-11-21T13:50:18;12.70;99.90
4596;DHT22;2310;49.978;8.742;2023-11-21T13:54:22;12.70;99.90
4596;DHT22;2310;49.978;8.742;2023-11-21T13:58:25;12.70;99.90
4596;DHT22;2310;49.978;8.742;2023-11-21T14:02:31;12.50;99.90
4596;DHT22;2310;49.978;8.742;2023-11-21T14:06:35;12.40;99.90
4596;DHT22;2310;49.978;8.742;2023-11-21T14:10:38;12.40;99.90
4596;DHT22;2310;49.978;8.742;2023-11-21T14:14:42;12.40;99.90
4596;DHT22;2310;49.978;8.742;2023-11-21T14:18:45;12.40;99.90
4596;DHT22;2310;49.978;8.742;2023-11-21T14:22:54;12.50;99.90
4596;DHT22;2310;49.978;8.742;2023-11-21T14:26:56;12.40;99.90
4596;DHT22;2310;49.978;8.742;2023-11-21T14:30:57;12.40;99.90
4596;DHT22;2310;49.978;8.742;2023-11-21T14:34:59;12.40;99.90
4596;DHT22;2310;49.978;8.742;2023-11-21T14:39:00;12.30;99.90
4596;DHT22;2310;49.978;8.742;2023-11-21T14:43:02;12.40;99.90
4596;DHT22;2310;49.978;8.742;2023-11-21T14:47:07;12.40;99.90
4596;DHT22;2310;49.978;8.742;2023-11-21T14:51:10;12.40;99.90
4596;DHT22;2310;49.978;8.742;2023-11-21T14:55:29;12.40;99.90
4596;DHT22;2310;49.978;8.742;2023-11-21T14:59:35;12.40;99.90
4596;DHT22;2310;49.978;8.742;2023-11-21T15:03:36;12.40;99.90
4596;DHT22;2310;49.978;8.742;2023-11-21T15:07:40;12.50;99.90
4596;DHT22;2310;49.978;8.742;2023-11-21T15:11:41;12.40;99.90
4596;DHT22;2310;49.978;8.742;2023-11-21T15:15:43;12.30;99.90
4596;DHT22;2310;49.978;8.742;2023-11-21T15:19:44;12.30;99.90
4596;DHT22;2310;49.978;8.742;2023-11-21T15:23:46;12.30;99.90
4596;DHT22;2310;49.978;8.742;2023-11-21T15:27:47;12.40;99.90
4596;DHT22;2310;49.978;8.742;2023-11-21T15:31:51;12.20;99.90
4596;DHT22;2310;49.978;8.742;2023-11-21T15:35:54;12.20;99.90
4596;DHT22;2310;49.978;8.742;2023-11-21T15:39:56;12.30;99.90
4596;DHT22;2310;49.978;8.742;2023-11-21T15:43:57;12.60;99.90
4596;DHT22;2310;49.978;8.742;2023-11-21T15:47:59;13.00;99.90
4596;DHT22;2310;49.978;8.742;2023-11-21T15:52:02;13.30;99.90
4596;DHT22;2310;49.978;8.742;2023-11-21T15:56:04;13.20;99.90
4596;DHT22;2310;49.978;8.742;2023-11-21T16:00:06;13.00;99.90
4596;DHT22;2310;49.978;8.742;2023-11-21T16:04:10;12.60;99.90
4596;DHT22;2310;49.978;8.742;2023-11-21T16:08:12;12.40;99.90
4596;DHT22;2310;49.978;8.742;2023-11-21T16:12:14;12.50;99.90
4596;DHT22;2310;49.978;8.742;2023-11-21T16:16:19;12.30;99.90
4596;DHT22;2310;49.978;8.742;2023-11-21T16:20:20;12.30;99.90
4596;DHT22;2310;49.978;8.742;2023-11-21T16:24:22;12.20;99.90
4596;DHT22;2310;49.978;8.742;2023-11-21T16:28:24;12.30;99.90
4596;DHT22;2310;49.978;8.742;2023-11-21T16:32:26;12.40;99.90
4596;DHT22;2310;49.978;8.742;2023-11-21T16:36:29;12.40;99.90
4596;DHT22;2310;49.978;8.742;2023-11-21T16:40:31;12.40;99.90
4596;DHT22;2310;49.978;8.742;2023-11-21T16:44:32;12.50;99.90
4596;DHT22;2310;49.978;8.742;2023-11-21T16:48:33;12.50;99.90
4596;DHT22;2310;49.978;8.742;2023-11-21T16:52:35;12.50;99.90
4596;DHT22;2310;49.978;8.742;2023-11-21T16:56:36;12.30;99.90
4596;DHT22;2310;49.978;8.742;2023-11-21T17:00:38;12.40;99.90
4596;DHT22;2310;49.978;8.742;2023-11-21T17:04:39;12.30;99.90
4596;DHT22;2310;49.978;8.742;2023-11-21T17:08:42;12.30;99.90
4596;DHT22;2310;49.978;8.742;2023-11-21T17:12:45;12.40;99.90
4596;DHT22;2310;49.978;8.742;2023-11-21T17:16:46;12.40;99.90
4596;DHT22;2310;49.978;8.742;2023-11-21T17:20:50;12.30;99.90
4596;DHT22;2310;49.978;8.742;2023-11-21T17:24:52;12.40;99.90
4596;DHT22;2310;49.978;8.742;2023-11-21T17:28:53;12.30;99.90
4596;DHT22;2310;49.978;8.742;2023-11-21T17:32:55;12.30;99.90
4596;DHT22;2310;49.978;8.742;2023-11-21T17:36:58;12.20;99.90
4596;DHT22;2310;49.978;8.742;2023-11-21T17:41:00;12.20;99.90
4596;DHT22;2310;49.978;8.742;2023-11-21T17:45:02;12.00;99.90
4596;DHT22;2310;49.978;8.742;2023-11-21T17:49:04;11.70;99.90
4596;DHT22;2310;49.978;8.742;2023-11-21T17:53:05;11.70;99.90
4596;DHT22;2310;49.978;8.742;2023-11-21T17:57:06;11.60;99.90
4596;DHT22;2310;49.978;8.742;2023-11-21T18:01:09;11.60;99.90
4596;DHT22;2310;49.978;8.742;2023-11-21T18:05:10;11.70;99.90
4596;DHT22;2310;49.978;8.742;2023-11-21T18:09:14;11.70;99.90
4596;DHT22;2310;49.978;8.742;2023-11-21T18:13:16;11.50;99.90
4596;DHT22;2310;49.978;8.742;2023-11-21T18:17:18;11.60;99.90
4596;DHT22;2310;49.978;8.742;2023-11-21T18:21:20;11.60;99.90
4596;DHT22;2310;49.978;8.742;2023-11-21T18:25:21;11.40;99.90
4596;DHT22;2310;49.978;8.742;2023-11-21T18:29:23;11.40;99.90
4596;DHT22;2310;49.978;8.742;2023-11-21T18:33:24;11.30;99.90
4596;DHT22;2310;49.978;8.742;2023-11-21T18:37:25;11.20;99.90
4596;DHT22;2310;49.978;8.742;2023-11-21T18:41:27;11.30;99.90
4596;DHT22;2310;49.978;8.742;2023-11-21T18:45:28;11.10;99.90
4596;DHT22;2310;49.978;8.742;2023-11-21T18:49:29;11.10;99.90
4596;DHT22;2310;49.978;8.742;2023-11-21T18:53:31;11.00;99.90
4596;DHT22;2310;49.978;8.742;2023-11-21T18:57:34;11.50;99.90
4596;DHT22;2310;49.978;8.742;2023-11-21T19:01:36;11.00;99.90
4596;DHT22;2310;49.978;8.742;2023-11-21T19:05:37;10.80;99.90
4596;DHT22;2310;49.978;8.742;2023-11-21T19:09:39;10.80;99.90
4596;DHT22;2310;49.978;8.742;2023-11-21T19:13:40;10.30;99.90
4596;DHT22;2310;49.978;8.742;2023-11-21T19:17:42;10.40;99.90
4596;DHT22;2310;49.978;8.742;2023-11-21T19:21:44;10.20;99.90
4596;DHT22;2310;49.978;8.742;2023-11-21T19:25:45;10.10;99.90
4596;DHT22;2310;49.978;8.742;2023-11-21T19:29:47;9.90;99.90
4596;DHT22;2310;49.978;8.742;2023-11-21T19:33:49;9.50;99.90
4596;DHT22;2310;49.978;8.742;2023-11-21T19:37:52;9.40;99.90
4596;DHT22;2310;49.978;8.742;2023-11-21T19:41:53;9.30;99.90
4596;DHT22;2310;49.978;8.742;2023-11-21T19:45:55;9.10;99.90
4596;DHT22;2310;49.978;8.742;2023-11-21T19:50:00;8.90;99.90
4596;DHT22;2310;49.978;8.742;2023-11-21T19:54:02;8.60;99.90
4596;DHT22;2310;49.978;8.742;2023-11-21T19:58:05;8.70;99.90
4596;DHT22;2310;49.978;8.742;2023-11-21T20:02:07;8.60;99.90
4596;DHT22;2310;49.978;8.742;2023-11-21T20:06:09;8.60;99.90
4596;DHT22;2310;49.978;8.742;2023-11-21T20:10:10;8.70;99.90
4596;DHT22;2310;49.978;8.742;2023-11-21T20:14:12;8.70;99.90
4596;DHT22;2310;49.978;8.742;2023-11-21T20:18:13;8.80;99.90
4596;DHT22;2310;49.978;8.742;2023-11-21T20:22:15;8.60;99.90
4596;DHT22;2310;49.978;8.742;2023-11-21T20:26:21;8.70;99.90
4596;DHT22;2310;49.978;8.742;2023-11-21T20:30:25;8.70;99.90
4596;DHT22;2310;49.978;8.742;2023-11-21T20:34:28;8.70;99.90
4596;DHT22;2310;49.978;8.742;2023-11-21T20:38:30;8.70;99.90
4596;DHT22;2310;49.978;8.742;2023-11-21T20:42:31;8.70;99.90
4596;DHT22;2310;49.978;8.742;2023-11-21T20:46:33;8.50;99.90
4596;DHT22;2310;49.978;8.742;2023-11-21T20:50:34;8.40;99.90
4596;DHT22;2310;49.978;8.742;2023-11-21T20:54:36;8.30;99.90
4596;DHT22;2310;49.978;8.742;2023-11-21T20:58:38;8.20;99.90
4596;DHT22;2310;49.978;8.742;2023-11-21T21:02:40;8.30;99.90
4596;DHT22;2310;49.978;8.742;2023-11-21T21:06:42;8.20;99.90
4596;DHT22;2310;49.978;8.742;2023-11-21T21:10:43;8.30;99.90
4596;DHT22;2310;49.978;8.742;2023-11-21T21:14:45;8.20;99.90
4596;DHT22;2310;49.978;8.742;2023-11-21T21:18:46;8.40;99.90
4596;DHT22;2310;49.978;8.742;2023-11-21T21:22:47;8.40;99.90
4596;DHT22;2310;49.978;8.742;2023-11-21T21:26:49;8.20;99.90
4596;DHT22;2310;49.978;8.742;2023-11-21T21:30:50;8.20;99.90
4596;DHT22;2310;49.978;8.742;2023-11-21T21:34:51;8.00;99.90
4596;DHT22;2310;49.978;8.742;2023-11-21T21:38:54;8.00;99.90
4596;DHT22;2310;49.978;8.742;2023-11-21T21:42:56;8.00;99.90
4596;DHT22;2310;49.978;8.742;2023-11-21T21:46:59;7.90;99.90
4596;DHT22;2310;49.978;8.742;2023-11-21T21:51:00;7.90;99.90
4596;DHT22;2310;49.978;8.742;2023-11-21T21:55:02;7.80;99.90
4596;DHT22;2310;49.978;8.742;2023-11-21T21:59:05;7.80;99.90
4596;DHT22;2310;49.978;8.742;2023-11-21T22:03:08;7.70;99.90
4596;DHT22;2310;49.978;8.742;2023-11-21T22:07:10;7.70;99.90
4596;DHT22;2310;49.978;8.742;2023-11-21T22:11:11;7.70;99.90
4596;DHT22;2310;49.978;8.742;2023-11-21T22:15:12;7.70;99.90
4596;DHT22;2310;49.978;8.742;2023-11-21T22:19:14;7.60;99.90
4596;DHT22;2310;49.978;8.742;2023-11-21T22:23:16;7.50;99.90
4596;DHT22;2310;49.978;8.742;2023-11-21T22:27:18;7.60;99.90
4596;DHT22;2310;49.978;8.742;2023-11-21T22:31:19;7.40;99.90
4596;DHT22;2310;49.978;8.742;2023-11-21T22:35:21;7.30;99.90
4596;DHT22;2310;49.978;8.742;2023-11-21T22:39:23;7.10;99.90
4596;DHT22;2310;49.978;8.742;2023-11-21T22:43:24;7.00;99.90
4596;DHT22;2310;49.978;8.742;2023-11-21T22:47:26;7.10;99.90
4596;DHT22;2310;49.978;8.742;2023-11-21T22:51:27;7.10;99.90
4596;DHT22;2310;49.978;8.742;2023-11-21T22:55:29;7.20;99.90
4596;DHT22;2310;49.978;8.742;2023-11-21T22:59:30;7.20;99.90
4596;DHT22;2310;49.978;8.742;2023-11-21T23:03:31;7.10;99.90
4596;DHT22;2310;49.978;8.742;2023-11-21T23:07:33;7.20;99.90
4596;DHT22;2310;49.978;8.742;2023-11-21T23:11:34;7.20;99.90
4596;DHT22;2310;49.978;8.742;2023-11-21T23:15:36;7.30;99.90
4596;DHT22;2310;49.978;8.742;2023-11-21T23:19:37;7.30;99.90
4596;DHT22;2310;49.978;8.742;2023-11-21T23:23:41;7.20;99.90
4596;DHT22;2310;49.978;8.742;2023-11-21T23:27:43;7.10;99.90
4596;DHT22;2310;49.978;8.742;2023-11-21T23:31:45;7.00;99.90
4596;DHT22;2310;49.978;8.742;2023-11-21T23:35:46;7.00;99.90
4596;DHT22;2310;49.978;8.742;2023-11-21T23:39:48;6.80;99.90
4596;DHT22;2310;49.978;8.742;2023-11-21T23:43:49;6.70;99.90
4596;DHT22;2310;49.978;8.742;2023-11-21T23:47:51;6.90;99.90
4596;DHT22;2310;49.978;8.742;2023-11-21T23:51:53;6.90;99.90
4596;DHT22;2310;49.978;8.742;2023-11-21T23:55:54;6.90;99.90
4596;DHT22;2310;49.978;8.742;2023-11-21T23:59:56;6.90;99.90
